createdAt,value
2022-08-20T00:00:27.007Z,19.60
2022-08-20T00:02:58.922Z,19.58
2022-08-20T00:05:29.203Z,19.51
2022-08-20T00:07:56.023Z,19.44
2022-08-20T00:10:23.183Z,19.43
2022-08-20T00:12:51.618Z,19.46
2022-08-20T00:15:22.918Z,19.50
2022-08-20T00:17:50.637Z,19.54
2022-08-20T00:20:21.455Z,19.57
2022-08-20T00:22:48.251Z,19.59
2022-08-20T00:25:19.856Z,19.53
2022-08-20T00:27:46.575Z,19.50
2022-08-20T00:30:15.627Z,19.50
2022-08-20T00:32:44.571Z,19.50
2022-08-20T00:35:12.974Z,19.42
2022-08-20T00:37:41.242Z,19.37
2022-08-20T00:40:22.989Z,19.36
2022-08-20T00:42:50.893Z,19.30
2022-08-20T00:45:19.337Z,19.30
2022-08-20T00:47:51.096Z,19.35
2022-08-20T00:50:23.490Z,19.41
2022-08-20T00:52:53.079Z,19.47
2022-08-20T00:55:23.220Z,19.48
2022-08-20T00:58:00.531Z,19.51
2022-08-20T01:00:32.386Z,19.51
2022-08-20T01:03:00.630Z,19.50
2022-08-20T01:05:29.744Z,19.53
2022-08-20T01:07:58.477Z,19.50
2022-08-20T01:10:29.731Z,19.52
2022-08-20T01:12:59.793Z,19.58
2022-08-20T01:15:30.774Z,19.63
2022-08-20T01:18:00.418Z,19.66
2022-08-20T01:20:30.757Z,19.67
2022-08-20T01:23:26.312Z,19.65
2022-08-20T01:25:58.112Z,19.61
2022-08-20T01:28:29.863Z,19.60
2022-08-20T01:30:56.916Z,19.57
2022-08-20T01:33:24.078Z,19.53
2022-08-20T01:35:52.640Z,19.51
2022-08-20T01:38:19.802Z,19.50
2022-08-20T01:41:07.189Z,19.50
2022-08-20T01:43:37.076Z,19.42
2022-08-20T01:46:04.910Z,19.46
2022-08-20T01:48:31.668Z,19.49
2022-08-20T01:51:04.706Z,19.53
2022-08-20T01:53:33.887Z,19.52
2022-08-20T01:56:03.833Z,19.48
2022-08-20T01:58:32.062Z,19.46
2022-08-20T02:00:58.777Z,19.44
2022-08-20T02:03:26.332Z,19.43
2022-08-20T02:05:53.562Z,19.44
2022-08-20T02:08:21.535Z,19.45
2022-08-20T02:13:56.459Z,19.41
2022-08-20T02:16:28.369Z,19.37
2022-08-20T02:18:58.719Z,19.38
2022-08-20T02:21:29.422Z,19.40
2022-08-20T02:23:56.427Z,19.44
2022-08-20T02:26:23.477Z,19.45
2022-08-20T02:28:52.632Z,19.47
2022-08-20T02:31:22.106Z,19.47
2022-08-20T02:34:22.258Z,19.48
2022-08-20T02:36:38.417Z,19.50
2022-08-20T02:39:07.601Z,19.53
2022-08-20T02:41:35.129Z,19.51
2022-08-20T02:44:02.076Z,19.49
2022-08-20T02:46:30.186Z,19.49
2022-08-20T02:48:57.951Z,19.47
2022-08-20T02:51:30.205Z,19.49
2022-08-20T02:53:57.369Z,19.49
2022-08-20T02:56:24.041Z,19.50
2022-08-20T02:58:50.734Z,19.52
2022-08-20T03:01:18.128Z,19.52
2022-08-20T03:03:46.203Z,19.49
2022-08-20T03:06:16.131Z,19.50
2022-08-20T03:08:43.500Z,19.48
2022-08-20T03:11:11.121Z,19.47
2022-08-20T03:13:37.848Z,19.49
2022-08-20T03:16:05.859Z,19.49
2022-08-20T03:18:36.055Z,19.49
2022-08-20T03:21:06.335Z,19.48
2022-08-20T03:23:33.957Z,19.47
2022-08-20T03:26:04.291Z,19.49
2022-08-20T03:28:31.965Z,19.50
2022-08-20T03:30:59.450Z,19.51
2022-08-20T03:33:27.540Z,19.53
2022-08-20T03:35:54.323Z,19.53
2022-08-20T03:38:32.664Z,19.55
2022-08-20T03:41:01.006Z,19.56
2022-08-20T03:43:28.040Z,19.57
2022-08-20T03:45:54.845Z,19.56
2022-08-20T03:48:22.608Z,19.55
2022-08-20T03:50:51.285Z,19.55
2022-08-20T03:53:18.768Z,19.53
2022-08-20T03:55:54.138Z,19.53
2022-08-20T03:58:22.337Z,19.51
2022-08-20T04:01:01.431Z,19.51
2022-08-20T04:03:28.699Z,19.52
2022-08-20T04:05:55.464Z,19.51
2022-08-20T04:08:24.639Z,19.51
2022-08-20T04:10:54.536Z,19.51
2022-08-20T04:13:22.749Z,19.48
2022-08-20T04:15:53.608Z,19.49
2022-08-20T04:18:24.005Z,19.49
2022-08-20T04:20:53.070Z,19.50
2022-08-20T04:23:21.198Z,19.49
2022-08-20T04:25:49.299Z,19.51
2022-08-20T04:28:30.108Z,19.55
2022-08-20T04:31:00.720Z,19.56
2022-08-20T04:33:33.833Z,19.55
2022-08-20T04:36:02.964Z,19.54
2022-08-20T04:38:49.623Z,19.58
2022-08-20T04:41:22.801Z,19.60
2022-08-20T04:43:54.552Z,19.62
2022-08-20T04:46:23.230Z,19.63
2022-08-20T04:48:50.238Z,19.65
2022-08-20T04:51:18.192Z,19.68
2022-08-20T04:53:51.650Z,19.69
2022-08-20T04:56:19.796Z,19.67
2022-08-20T04:58:48.733Z,19.63
2022-08-20T05:01:17.063Z,19.61
2022-08-20T05:03:44.218Z,19.59
2022-08-20T05:06:12.245Z,19.56
2022-08-20T05:08:39.397Z,19.54
2022-08-20T05:11:33.577Z,19.56
2022-08-20T05:13:55.975Z,19.55
2022-08-20T05:16:24.528Z,19.57
2022-08-20T05:18:52.790Z,19.59
2022-08-20T05:21:20.577Z,19.56
2022-08-20T05:23:47.410Z,19.51
2022-08-20T05:26:16.081Z,19.50
2022-08-20T05:28:53.969Z,19.49
2022-08-20T05:31:32.354Z,19.51
2022-08-20T05:34:01.494Z,19.51
2022-08-20T05:36:28.321Z,19.53
2022-08-20T05:38:55.017Z,19.53
2022-08-20T05:41:28.505Z,19.56
2022-08-20T05:43:57.125Z,19.58
2022-08-20T05:46:23.796Z,19.59
2022-08-20T05:48:51.820Z,19.63
2022-08-20T05:51:18.712Z,19.64
2022-08-20T05:53:45.333Z,19.63
2022-08-20T05:56:12.035Z,19.65
2022-08-20T05:58:39.036Z,19.67
2022-08-20T06:01:06.009Z,19.67
2022-08-20T06:03:51.296Z,19.71
2022-08-20T06:06:45.762Z,19.70
2022-08-20T06:09:07.390Z,19.71
2022-08-20T06:11:37.148Z,19.74
2022-08-20T06:14:04.690Z,19.73
2022-08-20T06:16:31.955Z,19.77
2022-08-20T06:18:58.987Z,19.79
2022-08-20T06:21:27.247Z,19.86
2022-08-20T06:23:59.235Z,19.91
2022-08-20T06:26:29.913Z,19.94
2022-08-20T06:28:57.755Z,19.96
2022-08-20T06:31:25.205Z,20.02
2022-08-20T06:33:51.876Z,20.06
2022-08-20T06:36:19.033Z,20.09
2022-08-20T06:38:47.245Z,20.13
2022-08-20T06:41:14.146Z,20.14
2022-08-20T06:43:40.848Z,20.17
2022-08-20T06:46:07.812Z,20.17
2022-08-20T06:48:35.027Z,20.17
2022-08-20T06:51:02.011Z,20.16
2022-08-20T06:53:29.248Z,20.14
2022-08-20T06:55:59.417Z,20.15
2022-08-20T06:58:30.468Z,20.16
2022-08-20T07:01:09.297Z,20.19
2022-08-20T07:03:55.125Z,20.22
2022-08-20T07:06:25.547Z,20.20
2022-08-20T07:11:52.650Z,20.07
2022-08-20T07:14:20.334Z,20.01
2022-08-20T07:16:47.689Z,19.95
2022-08-20T07:19:15.229Z,19.95
2022-08-20T07:24:22.649Z,20.04
2022-08-20T07:26:52.051Z,20.09
2022-08-20T07:29:50.020Z,20.16
2022-08-20T07:32:36.884Z,20.21
2022-08-20T07:35:10.838Z,20.33
2022-08-20T07:37:38.865Z,20.45
2022-08-20T07:40:08.102Z,20.52
2022-08-20T07:42:35.011Z,20.60
2022-08-20T07:50:58.247Z,21.01
2022-08-20T07:53:25.454Z,21.00
2022-08-20T08:01:32.398Z,20.80
2022-08-20T08:19:09.635Z,20.39
2022-08-20T08:21:36.464Z,20.41
2022-08-20T08:24:03.680Z,20.45
2022-08-20T08:26:30.562Z,20.49
2022-08-20T08:28:58.245Z,20.53
2022-08-20T08:31:26.575Z,20.61
2022-08-20T08:33:53.433Z,20.68
2022-08-20T08:36:20.299Z,20.71
2022-08-20T08:38:47.028Z,20.76
2022-08-20T08:41:18.473Z,20.83
2022-08-20T08:43:47.610Z,20.87
2022-08-20T08:46:18.673Z,20.90
2022-08-20T08:48:49.286Z,20.93
2022-08-20T08:51:26.631Z,20.97
2022-08-20T08:53:55.678Z,21.03
2022-08-20T08:56:25.215Z,21.07
2022-08-20T08:58:51.885Z,21.10
2022-08-20T09:01:54.915Z,21.17
2022-08-20T09:04:10.342Z,21.26
2022-08-20T09:06:37.080Z,21.30
2022-08-20T09:09:06.639Z,21.35
2022-08-20T09:11:45.915Z,21.37
2022-08-20T09:14:12.807Z,21.34
2022-08-20T09:16:52.344Z,21.33
2022-08-20T09:19:21.409Z,21.36
2022-08-20T09:21:48.442Z,21.32
2022-08-20T09:24:15.242Z,21.31
2022-08-20T09:26:41.971Z,21.37
2022-08-20T09:29:08.693Z,21.47
2022-08-20T09:31:35.593Z,21.55
2022-08-20T09:34:05.115Z,21.66
2022-08-20T09:36:33.535Z,21.72
2022-08-20T09:39:00.797Z,21.75
2022-08-20T09:41:29.913Z,21.80
2022-08-20T09:43:56.551Z,21.90
2022-08-20T09:46:27.373Z,21.98
2022-08-20T09:48:54.524Z,22.00
2022-08-20T09:51:21.278Z,22.00
2022-08-20T09:53:50.566Z,22.06
2022-08-20T09:56:17.837Z,22.06
2022-08-20T09:58:49.396Z,22.09
2022-08-20T10:01:17.879Z,22.06
2022-08-20T10:03:47.920Z,22.09
2022-08-20T10:06:16.618Z,22.18
2022-08-20T10:08:43.444Z,22.26
2022-08-20T10:11:11.905Z,22.27
2022-08-20T10:13:38.548Z,22.31
2022-08-20T10:16:05.737Z,22.34
2022-08-20T10:18:32.561Z,22.51
2022-08-20T10:20:59.239Z,22.66
2022-08-20T10:23:25.879Z,22.89
2022-08-20T10:25:52.516Z,23.04
2022-08-20T10:28:20.475Z,23.23
2022-08-20T10:30:47.241Z,23.43
2022-08-20T10:33:13.934Z,23.61
2022-08-20T10:35:40.540Z,23.83
2022-08-20T10:38:07.175Z,23.87
2022-08-20T10:40:33.788Z,23.96
2022-08-20T10:43:00.389Z,24.07
2022-08-20T10:45:28.348Z,24.27
2022-08-20T10:47:55.047Z,24.50
2022-08-20T10:50:21.730Z,24.74
2022-08-20T10:52:48.439Z,24.89
2022-08-20T10:55:15.375Z,25.00
2022-08-20T10:57:43.412Z,25.14
2022-08-20T11:00:13.366Z,25.19
2022-08-20T11:02:41.397Z,25.11
2022-08-20T11:05:08.634Z,25.06
2022-08-20T11:07:56.258Z,25.06
2022-08-20T11:10:24.900Z,24.93
2022-08-20T11:12:51.497Z,24.89
2022-08-20T11:15:18.443Z,24.91
2022-08-20T11:17:46.822Z,24.83
2022-08-20T11:20:15.738Z,24.83
2022-08-20T11:22:42.361Z,24.92
2022-08-20T11:25:09.818Z,24.98
2022-08-20T11:27:39.075Z,24.94
2022-08-20T11:30:08.625Z,24.82
2022-08-20T11:32:35.576Z,24.68
2022-08-20T11:35:24.561Z,24.55
2022-08-20T11:37:51.305Z,24.41
2022-08-20T11:40:18.549Z,24.31
2022-08-20T11:43:11.046Z,24.22
2022-08-20T11:45:31.861Z,24.10
2022-08-20T11:48:04.494Z,24.03
2022-08-20T11:50:32.483Z,23.96
2022-08-20T11:53:01.158Z,23.81
2022-08-20T11:55:30.373Z,23.62
2022-08-20T11:58:00.356Z,23.54
2022-08-20T12:00:31.750Z,23.44
2022-08-20T12:03:00.115Z,23.39
2022-08-20T12:05:27.399Z,23.40
2022-08-20T12:07:55.409Z,23.45
2022-08-20T12:10:24.340Z,23.57
2022-08-20T12:12:51.008Z,23.72
2022-08-20T12:15:17.956Z,23.84
2022-08-20T12:17:44.682Z,24.02
2022-08-20T12:20:13.711Z,24.19
2022-08-20T12:22:41.058Z,24.27
2022-08-20T12:25:09.750Z,24.24
2022-08-20T12:27:37.425Z,24.18
2022-08-20T12:30:08.962Z,24.28
2022-08-20T12:32:35.690Z,24.44
2022-08-20T12:35:02.732Z,24.67
2022-08-20T12:37:30.984Z,24.74
2022-08-20T12:39:59.570Z,24.73
2022-08-20T12:42:30.348Z,24.71
2022-08-20T12:44:57.093Z,24.72
2022-08-20T12:47:26.129Z,24.77
2022-08-20T12:49:55.905Z,24.77
2022-08-20T12:52:23.981Z,24.76
2022-08-20T12:54:51.393Z,24.80
2022-08-20T12:57:23.979Z,24.82
2022-08-20T12:59:52.001Z,24.77
2022-08-20T13:02:19.193Z,24.58
2022-08-20T13:04:45.930Z,24.42
2022-08-20T13:07:13.721Z,24.29
2022-08-20T13:09:40.569Z,24.19
2022-08-20T13:12:08.083Z,23.97
2022-08-20T13:14:34.873Z,23.71
2022-08-20T13:17:03.641Z,23.46
2022-08-20T13:19:35.781Z,23.27
2022-08-20T13:22:02.840Z,23.16
2022-08-20T13:24:29.886Z,23.08
2022-08-20T13:27:04.532Z,23.09
2022-08-20T13:29:31.211Z,23.11
2022-08-20T13:31:57.864Z,23.14
2022-08-20T13:34:25.866Z,23.19
2022-08-20T13:36:52.547Z,23.21
2022-08-20T13:39:19.170Z,23.21
2022-08-20T13:41:45.774Z,23.18
2022-08-20T13:44:12.424Z,23.22
2022-08-20T13:46:39.106Z,23.26
2022-08-20T13:49:05.780Z,23.28
2022-08-20T13:51:33.729Z,23.33
2022-08-20T13:54:00.355Z,23.38
2022-08-20T13:56:27.579Z,23.42
2022-08-20T13:58:54.194Z,23.47
2022-08-20T14:01:20.875Z,23.56
2022-08-20T14:03:47.864Z,23.62
2022-08-20T14:06:15.111Z,23.65
2022-08-20T14:08:43.066Z,23.74
2022-08-20T14:11:12.828Z,23.76
2022-08-20T14:13:44.762Z,23.84
2022-08-20T14:16:21.302Z,23.84
2022-08-20T14:18:55.467Z,23.79
2022-08-20T14:21:22.117Z,23.71
2022-08-20T14:23:50.122Z,23.71
2022-08-20T14:26:16.763Z,23.69
2022-08-20T14:28:43.376Z,23.58
2022-08-20T14:31:09.974Z,23.50
2022-08-20T14:33:38.462Z,23.51
2022-08-20T14:38:33.646Z,23.66
2022-08-20T14:41:01.616Z,23.76
2022-08-20T14:43:28.274Z,23.81
2022-08-20T14:45:54.885Z,23.81
2022-08-20T14:48:22.622Z,23.82
2022-08-20T14:50:49.290Z,23.83
2022-08-20T14:53:15.994Z,23.78
2022-08-20T14:55:42.897Z,23.74
2022-08-20T14:58:12.397Z,23.72
2022-08-20T15:00:39.651Z,23.69
2022-08-20T15:03:06.379Z,23.65
2022-08-20T15:05:34.495Z,23.63
2022-08-20T15:08:06.486Z,23.51
2022-08-20T15:10:34.203Z,23.33
2022-08-20T15:13:01.022Z,23.12
2022-08-20T15:15:29.106Z,22.90
2022-08-20T15:17:57.959Z,22.71
2022-08-20T15:20:25.980Z,22.51
2022-08-20T15:22:53.202Z,22.41
2022-08-20T15:25:22.314Z,22.38
2022-08-20T15:27:49.377Z,22.35
2022-08-20T15:30:18.364Z,22.35
2022-08-20T15:32:47.275Z,22.38
2022-08-20T15:35:16.262Z,22.40
2022-08-20T15:37:45.062Z,22.38
2022-08-20T15:40:13.865Z,22.37
2022-08-20T15:42:43.205Z,22.36
2022-08-20T15:45:21.864Z,22.35
2022-08-20T15:47:54.267Z,22.32
2022-08-20T15:50:34.310Z,22.29
2022-08-20T15:53:05.584Z,22.30
2022-08-20T15:55:33.551Z,22.32
2022-08-20T15:58:06.456Z,22.31
2022-08-20T16:00:40.766Z,22.24
2022-08-20T16:03:26.360Z,22.18
2022-08-20T16:05:59.566Z,22.09
2022-08-20T16:08:47.030Z,22.12
2022-08-20T16:11:22.047Z,22.17
2022-08-20T16:13:51.988Z,22.14
2022-08-20T16:16:23.610Z,22.08
2022-08-20T16:18:53.576Z,22.07
2022-08-20T16:21:28.398Z,22.10
2022-08-20T16:23:56.239Z,22.08
2022-08-20T16:26:34.980Z,22.09
2022-08-20T16:29:11.490Z,22.08
2022-08-20T16:31:44.748Z,22.11
2022-08-20T16:34:33.827Z,22.11
2022-08-20T16:37:11.627Z,22.07
2022-08-20T16:39:46.058Z,22.02
2022-08-20T16:42:18.126Z,22.01
2022-08-20T16:44:48.406Z,22.01
2022-08-20T16:47:18.216Z,22.02
2022-08-20T16:49:53.546Z,22.05
2022-08-20T16:52:20.184Z,22.05
2022-08-20T16:54:46.852Z,22.07
2022-08-20T16:57:17.220Z,22.06
2022-08-20T16:59:59.073Z,22.10
2022-08-20T17:02:26.214Z,22.09
2022-08-20T17:04:59.977Z,22.05
2022-08-20T17:07:33.501Z,21.98
2022-08-20T17:10:12.101Z,21.97
2022-08-20T17:12:38.847Z,21.98
2022-08-20T17:15:06.560Z,22.03
2022-08-20T17:17:38.545Z,22.02
2022-08-20T17:20:20.050Z,21.99
2022-08-20T17:22:50.525Z,21.93
2022-08-20T17:25:21.585Z,21.90
2022-08-20T17:27:49.016Z,21.87
2022-08-20T17:30:24.142Z,21.87
2022-08-20T17:32:57.755Z,21.84
2022-08-20T17:35:31.656Z,21.79
2022-08-20T17:38:00.253Z,21.74
2022-08-20T17:40:33.614Z,21.72
2022-08-20T17:43:02.556Z,21.72
2022-08-20T17:45:34.868Z,21.73
2022-08-20T17:48:04.818Z,21.74
2022-08-20T17:50:36.890Z,21.70
2022-08-20T17:53:10.942Z,21.64
2022-08-20T17:55:38.986Z,21.56
2022-08-20T17:58:11.884Z,21.56
2022-08-20T18:00:38.943Z,21.56
2022-08-20T18:03:14.543Z,21.56
2022-08-20T18:05:43.999Z,21.55
2022-08-20T18:08:19.392Z,21.53
2022-08-20T18:10:55.929Z,21.48
2022-08-20T18:13:45.138Z,21.45
2022-08-20T18:16:25.633Z,21.44
2022-08-20T18:18:57.488Z,21.42
2022-08-20T18:21:55.027Z,21.43
2022-08-20T18:24:29.812Z,21.41
2022-08-20T18:27:00.183Z,21.45
2022-08-20T18:29:31.786Z,21.47
2022-08-20T18:32:00.839Z,21.48
2022-08-20T18:34:36.898Z,21.50
2022-08-20T18:37:08.917Z,21.48
2022-08-20T18:39:37.485Z,21.47
2022-08-20T18:42:09.118Z,21.50
2022-08-20T18:44:44.176Z,21.53
2022-08-20T18:47:21.810Z,21.54
2022-08-20T18:50:01.207Z,21.55
2022-08-20T18:52:31.623Z,21.52
2022-08-20T18:55:00.478Z,21.46
2022-08-20T18:57:41.395Z,21.41
2022-08-20T19:00:13.127Z,21.39
2022-08-20T19:02:55.677Z,21.40
2022-08-20T19:05:28.822Z,21.39
2022-08-20T19:08:01.479Z,21.39
2022-08-20T19:10:46.590Z,21.40
2022-08-20T19:13:47.978Z,21.38
2022-08-20T19:16:20.062Z,21.33
2022-08-20T19:18:50.728Z,21.34
2022-08-20T19:21:23.310Z,21.36
2022-08-20T19:23:56.990Z,21.38
2022-08-20T19:26:27.289Z,21.36
2022-08-20T19:28:56.858Z,21.35
2022-08-20T19:31:26.932Z,21.33
2022-08-20T19:34:03.703Z,21.29
2022-08-20T19:36:46.446Z,21.20
2022-08-20T19:39:17.897Z,21.20
2022-08-20T19:41:48.561Z,21.18
2022-08-20T19:44:25.745Z,21.18
2022-08-20T19:46:52.930Z,21.18
2022-08-20T19:49:27.138Z,21.20
2022-08-20T19:52:09.033Z,21.20
2022-08-20T19:54:49.331Z,21.22
2022-08-20T19:57:17.328Z,21.19
2022-08-20T20:00:06.547Z,21.18
2022-08-20T20:02:34.140Z,21.16
2022-08-20T20:05:05.608Z,21.17
2022-08-20T20:07:37.784Z,21.15
2022-08-20T20:10:09.110Z,21.08
2022-08-20T20:12:35.943Z,21.01
2022-08-20T20:15:05.643Z,20.94
2022-08-20T20:17:35.795Z,20.88
2022-08-20T20:20:18.926Z,20.86
2022-08-20T20:22:50.661Z,20.85
2022-08-20T20:25:22.412Z,20.88
2022-08-20T20:27:51.571Z,20.85
2022-08-20T20:30:24.082Z,20.82
2022-08-20T20:32:51.010Z,20.79
2022-08-20T20:35:27.831Z,20.82
2022-08-20T20:38:02.061Z,20.81
2022-08-20T20:40:35.856Z,20.81
2022-08-20T20:43:05.462Z,20.76
2022-08-20T20:45:34.966Z,20.73
2022-08-20T20:48:14.833Z,20.70
2022-08-20T20:50:42.278Z,20.66
2022-08-20T20:53:09.322Z,20.63
2022-08-20T20:55:38.523Z,20.62
2022-08-20T20:58:05.314Z,20.60
2022-08-20T21:00:34.435Z,20.61
2022-08-20T21:03:03.763Z,20.59
2022-08-20T21:05:32.279Z,20.57
2022-08-20T21:08:00.785Z,20.55
2022-08-20T21:10:30.370Z,20.48
2022-08-20T21:12:59.404Z,20.43
2022-08-20T21:15:26.803Z,20.41
2022-08-20T21:17:54.226Z,20.42
2022-08-20T21:20:21.814Z,20.44
2022-08-20T21:22:48.571Z,20.43
2022-08-20T21:25:15.641Z,20.46
2022-08-20T21:27:45.380Z,20.47
2022-08-20T21:30:14.248Z,20.46
2022-08-20T21:32:41.004Z,20.38
2022-08-20T21:35:09.194Z,20.36
2022-08-20T21:37:36.251Z,20.37
2022-08-20T21:40:04.602Z,20.36
2022-08-20T21:42:31.522Z,20.33
2022-08-20T21:44:58.388Z,20.31
2022-08-20T21:47:26.765Z,20.30
2022-08-20T21:49:53.591Z,20.27
2022-08-20T21:52:20.284Z,20.25
2022-08-20T21:54:46.991Z,20.24
2022-08-20T21:57:19.479Z,20.23
2022-08-20T21:59:46.378Z,20.16
2022-08-20T22:02:13.160Z,20.07
2022-08-20T22:04:41.207Z,19.96
2022-08-20T22:07:08.641Z,19.89
2022-08-20T22:09:36.359Z,19.87
2022-08-20T22:12:04.573Z,19.88
2022-08-20T22:14:31.290Z,19.85
2022-08-20T22:16:57.976Z,19.81
2022-08-20T22:19:24.681Z,19.72
2022-08-20T22:21:54.533Z,19.66
2022-08-20T22:24:22.978Z,19.60
2022-08-20T22:26:49.841Z,19.55
2022-08-20T22:29:16.486Z,19.47
2022-08-20T22:31:43.910Z,19.46
2022-08-20T22:34:13.089Z,19.45
2022-08-20T22:36:40.338Z,19.44
2022-08-20T22:39:08.683Z,19.45
2022-08-20T22:41:35.553Z,19.47
2022-08-20T22:44:02.654Z,19.50
2022-08-20T22:46:33.225Z,19.55
2022-08-20T22:48:59.892Z,19.57
2022-08-20T22:51:30.220Z,19.59
2022-08-20T22:53:57.903Z,19.58
2022-08-20T22:56:26.158Z,19.59
2022-08-20T22:58:52.765Z,19.59
2022-08-20T23:01:20.663Z,19.57
2022-08-20T23:03:47.395Z,19.56
2022-08-20T23:06:14.108Z,19.51
2022-08-20T23:08:42.004Z,19.49
2022-08-20T23:11:08.913Z,19.45
2022-08-20T23:13:37.794Z,19.44
2022-08-20T23:16:04.807Z,19.35
2022-08-20T23:18:31.513Z,19.32
2022-08-20T23:20:59.129Z,19.30
2022-08-20T23:23:27.334Z,19.28
2022-08-20T23:25:55.202Z,19.23
2022-08-20T23:28:23.687Z,19.19
2022-08-20T23:30:52.294Z,19.16
2022-08-20T23:33:19.506Z,19.10
2022-08-20T23:35:47.083Z,18.99
2022-08-20T23:38:14.306Z,18.92
2022-08-20T23:40:42.118Z,18.85
2022-08-20T23:43:08.826Z,18.79
2022-08-20T23:45:36.116Z,18.74
2022-08-20T23:48:08.393Z,18.73
2022-08-20T23:50:35.943Z,18.71
2022-08-20T23:53:03.027Z,18.74
2022-08-20T23:55:29.737Z,18.76
2022-08-20T23:57:56.534Z,18.76
